createdAt,value
2019-05-01T00:04:22.785Z,7.05
2019-05-01T00:09:30.068Z,7.01
2019-05-01T00:14:35.247Z,6.98
2019-05-01T00:19:40.768Z,6.96
2019-05-01T00:24:45.952Z,6.97
2019-05-01T00:29:51.238Z,6.94
2019-05-01T00:34:57.498Z,6.92
2019-05-01T00:40:02.847Z,6.85
2019-05-01T00:45:08.024Z,6.78
2019-05-01T00:50:14.269Z,6.75
2019-05-01T00:55:37.073Z,6.71
2019-05-01T01:01:01.237Z,6.67
2019-05-01T01:06:08.269Z,6.60
2019-05-01T01:11:13.635Z,6.51
2019-05-01T01:16:18.815Z,6.47
2019-05-01T01:21:24.377Z,6.42
2019-05-01T01:26:29.683Z,6.38
2019-05-01T01:31:34.832Z,6.38
2019-05-01T01:36:40.017Z,6.40
2019-05-01T01:41:45.980Z,6.40
2019-05-01T01:46:52.024Z,6.41
2019-05-01T01:51:57.315Z,6.43
2019-05-01T01:57:03.390Z,6.41
2019-05-01T02:02:31.753Z,6.40
2019-05-01T02:07:36.959Z,6.42
2019-05-01T02:12:43.034Z,6.44
2019-05-01T02:17:48.208Z,6.46
2019-05-01T02:22:53.740Z,6.52
2019-05-01T02:28:33.187Z,6.54
2019-05-01T02:33:40.128Z,6.55
2019-05-01T02:38:47.900Z,6.58
2019-05-01T02:43:56.256Z,6.63
2019-05-01T02:49:08.242Z,6.56
2019-05-01T02:54:16.232Z,6.55
2019-05-01T02:59:23.451Z,6.59
2019-05-01T03:04:28.915Z,6.65
2019-05-01T03:09:35.138Z,6.67
2019-05-01T03:14:43.990Z,6.70
2019-05-01T03:19:59.352Z,6.73
2019-05-01T03:25:05.033Z,6.77
2019-05-01T03:30:10.307Z,6.82
2019-05-01T03:35:15.589Z,6.84
2019-05-01T03:40:21.491Z,6.86
2019-05-01T03:45:26.754Z,6.85
2019-05-01T03:50:31.955Z,6.87
2019-05-01T03:55:46.513Z,6.94
2019-05-01T04:01:29.310Z,6.98
2019-05-01T04:06:35.153Z,6.98
2019-05-01T04:11:40.434Z,6.96
2019-05-01T04:16:49.361Z,6.96
2019-05-01T04:22:04.658Z,6.98
2019-05-01T04:27:12.883Z,7.00
2019-05-01T04:32:30.226Z,7.01
2019-05-01T04:37:35.913Z,7.02
2019-05-01T04:42:41.282Z,7.10
2019-05-01T04:47:46.930Z,7.11
2019-05-01T04:52:53.177Z,7.18
2019-05-01T04:57:58.765Z,7.24
2019-05-01T05:03:08.081Z,7.27
2019-05-01T05:08:13.382Z,7.32
2019-05-01T05:13:27.989Z,7.34
2019-05-01T05:18:34.343Z,7.35
2019-05-01T05:23:39.686Z,7.38
2019-05-01T05:28:45.358Z,7.41
2019-05-01T05:33:53.177Z,7.42
2019-05-01T05:39:05.483Z,7.44
2019-05-01T05:44:10.959Z,7.49
2019-05-01T05:49:16.225Z,7.50
2019-05-01T05:54:44.713Z,7.56
2019-05-01T05:59:55.986Z,7.64
2019-05-01T06:05:17.354Z,7.77
2019-05-01T06:10:31.481Z,7.86
2019-05-01T06:16:01.631Z,7.99
2019-05-01T06:21:35.945Z,8.13
2019-05-01T06:26:41.847Z,8.24
2019-05-01T06:31:47.050Z,8.33
2019-05-01T06:36:52.348Z,8.32
2019-05-01T06:41:58.622Z,8.23
2019-05-01T06:47:18.782Z,8.14
2019-05-01T06:52:29.438Z,8.15
2019-05-01T06:57:32.988Z,8.19
2019-05-01T07:02:38.252Z,8.22
2019-05-01T07:07:47.995Z,8.26
2019-05-01T07:12:52.938Z,8.35
2019-05-01T07:17:59.396Z,8.46
2019-05-01T07:23:06.316Z,8.51
2019-05-01T07:28:11.494Z,8.74
2019-05-01T07:33:17.889Z,8.93
2019-05-01T07:38:24.721Z,9.18
2019-05-01T07:43:54.964Z,9.42
2019-05-01T07:48:59.502Z,9.61
2019-05-01T07:54:08.760Z,9.73
2019-05-01T07:59:12.221Z,9.87
2019-05-01T08:04:19.728Z,10.12
2019-05-01T08:09:25.041Z,10.26
2019-05-01T08:14:30.328Z,10.44
2019-05-01T08:19:44.747Z,10.63
2019-05-01T08:24:53.930Z,10.81
2019-05-01T08:30:17.422Z,10.88
2019-05-01T08:35:24.540Z,10.95
2019-05-01T08:40:30.109Z,11.16
2019-05-01T08:45:57.424Z,11.49
2019-05-01T08:51:03.869Z,11.75
2019-05-01T08:56:09.965Z,11.79
2019-05-01T09:01:16.414Z,11.92
2019-05-01T09:06:34.313Z,12.06
2019-05-01T09:11:31.749Z,12.11
2019-05-01T09:16:37.727Z,12.03
2019-05-01T09:21:43.811Z,12.12
2019-05-01T09:27:03.656Z,12.19
2019-05-01T09:32:10.144Z,12.32
2019-05-01T09:37:17.243Z,12.31
2019-05-01T09:42:23.705Z,12.48
2019-05-01T09:47:31.119Z,12.82
2019-05-01T09:52:50.805Z,12.95
2019-05-01T09:57:56.443Z,12.97
2019-05-01T10:03:01.712Z,12.98
2019-05-01T10:08:06.988Z,12.88
2019-05-01T10:13:12.877Z,12.88
2019-05-01T10:18:18.239Z,12.90
2019-05-01T10:23:23.692Z,13.19
2019-05-01T10:28:45.213Z,13.73
2019-05-01T10:33:49.506Z,13.98
2019-05-01T10:38:54.782Z,14.30
2019-05-01T10:43:59.967Z,14.53
2019-05-01T10:49:05.326Z,14.69
2019-05-01T10:54:11.424Z,14.92
2019-05-01T10:59:16.681Z,15.07
2019-05-01T11:04:21.946Z,14.95
2019-05-01T11:09:27.271Z,14.90
2019-05-01T11:14:32.533Z,14.93
2019-05-01T11:19:38.168Z,15.24
2019-05-01T11:24:43.428Z,15.35
2019-05-01T11:29:48.695Z,15.53
2019-05-01T11:35:03.581Z,15.43
2019-05-01T11:40:13.503Z,15.91
2019-05-01T11:45:20.023Z,16.28
2019-05-01T11:50:25.309Z,16.30
2019-05-01T11:55:33.215Z,16.44
2019-05-01T12:00:38.769Z,16.38
2019-05-01T12:05:45.257Z,16.26
2019-05-01T12:10:50.647Z,16.37
2019-05-01T12:16:03.083Z,16.60
2019-05-01T12:21:08.764Z,17.01
2019-05-01T12:26:14.312Z,17.23
2019-05-01T12:31:19.590Z,17.31
2019-05-01T12:36:35.660Z,17.47
2019-05-01T12:41:40.177Z,17.56
2019-05-01T12:46:51.302Z,17.61
2019-05-01T12:52:09.888Z,17.98
2019-05-01T12:57:06.726Z,17.91
2019-05-01T13:02:12.012Z,18.06
2019-05-01T13:07:17.497Z,17.74
2019-05-01T13:12:23.128Z,17.98
2019-05-01T13:17:28.402Z,17.95
2019-05-01T13:22:33.663Z,17.75
2019-05-01T13:27:46.936Z,18.36
2019-05-01T13:32:53.620Z,18.37
2019-05-01T13:37:58.876Z,18.61
2019-05-01T13:43:04.478Z,18.72
2019-05-01T13:48:10.179Z,18.69
2019-05-01T13:53:16.356Z,18.90
2019-05-01T13:58:22.035Z,19.00
2019-05-01T14:03:28.370Z,19.12
2019-05-01T14:08:33.631Z,19.29
2019-05-01T14:13:39.017Z,19.25
2019-05-01T14:18:44.328Z,18.23
2019-05-01T14:24:12.396Z,18.82
2019-05-01T14:29:17.994Z,18.67
2019-05-01T14:34:23.283Z,18.23
2019-05-01T14:39:33.560Z,18.60
2019-05-01T14:44:39.333Z,18.57
2019-05-01T14:49:44.966Z,18.48
2019-05-01T14:54:50.229Z,18.90
2019-05-01T14:59:55.737Z,19.40
2019-05-01T15:05:01.000Z,19.29
2019-05-01T15:10:08.557Z,19.02
2019-05-01T15:15:45.344Z,18.78
2019-05-01T15:20:50.605Z,18.89
2019-05-01T15:25:56.269Z,19.09
2019-05-01T15:31:02.655Z,19.21
2019-05-01T15:36:08.028Z,19.17
2019-05-01T15:41:31.563Z,19.37
2019-05-01T15:46:38.483Z,19.24
2019-05-01T15:51:43.969Z,19.34
2019-05-01T15:56:49.252Z,19.08
2019-05-01T16:01:54.541Z,18.55
2019-05-01T16:07:00.107Z,17.82
2019-05-01T16:12:15.799Z,17.46
2019-05-01T16:17:21.344Z,17.35
2019-05-01T16:22:26.670Z,17.02
2019-05-01T16:27:33.108Z,16.69
2019-05-01T16:32:38.401Z,16.64
2019-05-01T16:37:44.479Z,16.62
2019-05-01T16:42:49.991Z,16.59
2019-05-01T16:47:55.100Z,16.52
2019-05-01T16:53:00.719Z,16.44
2019-05-01T16:58:08.737Z,16.40
2019-05-01T17:03:24.615Z,16.30
2019-05-01T17:14:13.747Z,16.21
2019-05-01T17:19:19.003Z,16.09
2019-05-01T17:24:24.929Z,16.17
2019-05-01T17:29:30.207Z,16.01
2019-05-01T17:34:35.480Z,15.93
2019-05-01T17:39:41.079Z,15.92
2019-05-01T17:44:48.347Z,15.82
2019-05-01T17:49:53.692Z,15.70
2019-05-01T17:55:01.326Z,15.63
2019-05-01T18:00:22.893Z,15.53
2019-05-01T18:05:56.173Z,15.63
2019-05-01T18:11:01.561Z,15.56
2019-05-01T18:16:07.102Z,15.49
2019-05-01T18:21:13.427Z,15.40
2019-05-01T18:26:29.103Z,15.30
2019-05-01T18:31:38.426Z,15.13
2019-05-01T18:36:48.938Z,14.96
2019-05-01T18:41:57.469Z,14.90
2019-05-01T18:47:02.735Z,14.86
2019-05-01T18:52:09.225Z,14.74
2019-05-01T18:57:14.930Z,14.61
2019-05-01T19:02:25.064Z,14.50
2019-05-01T19:07:28.347Z,14.37
2019-05-01T19:12:34.064Z,14.43
2019-05-01T19:17:40.454Z,14.33
2019-05-01T19:22:45.794Z,14.22
2019-05-01T19:27:51.736Z,14.19
2019-05-01T19:32:57.050Z,14.12
2019-05-01T19:38:02.443Z,14.08
2019-05-01T19:43:08.091Z,14.06
2019-05-01T19:48:13.842Z,14.13
2019-05-01T19:53:19.094Z,13.98
2019-05-01T19:58:24.429Z,13.96
2019-05-01T20:03:30.526Z,13.77
2019-05-01T20:08:37.046Z,13.60
2019-05-01T20:13:42.401Z,13.51
2019-05-01T20:18:47.658Z,13.44
2019-05-01T20:23:53.288Z,13.36
2019-05-01T20:29:00.427Z,13.38
2019-05-01T20:34:05.838Z,13.32
2019-05-01T20:39:11.092Z,13.44
2019-05-01T20:44:22.958Z,13.31
2019-05-01T20:49:23.891Z,13.15
2019-05-01T20:54:29.566Z,12.97
2019-05-01T20:59:39.150Z,12.78
2019-05-01T21:05:01.376Z,12.63
2019-05-01T21:10:08.519Z,12.54
2019-05-01T21:15:13.922Z,12.41
2019-05-01T21:20:19.195Z,12.35
2019-05-01T21:25:24.472Z,12.26
2019-05-01T21:30:29.875Z,12.14
2019-05-01T21:35:35.281Z,12.06
2019-05-01T21:40:41.233Z,11.95
2019-05-01T21:45:47.503Z,11.88
2019-05-01T21:50:53.725Z,11.80
2019-05-01T21:56:02.167Z,11.76
2019-05-01T22:01:07.962Z,11.64
2019-05-01T22:06:15.266Z,11.61
2019-05-01T22:11:20.320Z,11.51
2019-05-01T22:16:27.227Z,11.37
2019-05-01T22:21:57.967Z,11.25
2019-05-01T22:27:10.219Z,11.10
2019-05-01T22:32:34.152Z,10.95
2019-05-01T22:37:40.453Z,10.81
2019-05-01T22:42:45.706Z,10.71
2019-05-01T22:47:52.231Z,10.64
2019-05-01T22:52:57.855Z,10.61
2019-05-01T22:58:03.100Z,10.55
2019-05-01T23:03:11.282Z,10.51
2019-05-01T23:08:16.546Z,10.42
2019-05-01T23:13:22.667Z,10.38
2019-05-01T23:18:28.328Z,10.03
2019-05-01T23:23:35.555Z,10.02
2019-05-01T23:28:41.553Z,9.97
2019-05-01T23:33:50.565Z,9.85
2019-05-01T23:38:53.777Z,9.72
2019-05-01T23:44:03.456Z,9.67
2019-05-01T23:49:06.671Z,9.62
2019-05-01T23:54:11.851Z,9.62
2019-05-01T23:59:17.027Z,9.61
